sensor_id;sensor_type;location;lat;lon;timestamp;pressure;altitude;pressure_sealevel;temperature;humidity
3178;BME280;38141;42.666;23.344;2023-02-19T00:00:56;94943.16;;;7.60;73.94
3178;BME280;38141;42.666;23.344;2023-02-19T00:03:23;94926.78;;;7.50;73.09
3178;BME280;38141;42.666;23.344;2023-02-19T00:05:49;94932.31;;;7.57;72.78
3178;BME280;38141;42.666;23.344;2023-02-19T00:08:17;94942.31;;;7.56;74.43
3178;BME280;38141;42.666;23.344;2023-02-19T00:10:44;94917.41;;;7.40;74.88
3178;BME280;38141;42.666;23.344;2023-02-19T00:13:12;94926.84;;;7.11;77.05
3178;BME280;38141;42.666;23.344;2023-02-19T00:15:39;94927.63;;;7.31;76.18
3178;BME280;38141;42.666;23.344;2023-02-19T00:18:06;94932.00;;;7.39;75.49
3178;BME280;38141;42.666;23.344;2023-02-19T00:20:32;94929.78;;;7.45;74.28
3178;BME280;38141;42.666;23.344;2023-02-19T00:22:59;94872.81;;;7.01;75.80
3178;BME280;38141;42.666;23.344;2023-02-19T00:25:26;94930.50;;;7.23;75.92
3178;BME280;38141;42.666;23.344;2023-02-19T00:27:53;94929.56;;;6.96;78.28
3178;BME280;38141;42.666;23.344;2023-02-19T00:30:21;94912.81;;;7.02;78.58
3178;BME280;38141;42.666;23.344;2023-02-19T00:32:49;94913.03;;;6.94;78.53
3178;BME280;38141;42.666;23.344;2023-02-19T00:35:16;94919.09;;;6.91;79.51
3178;BME280;38141;42.666;23.344;2023-02-19T00:37:43;94913.66;;;7.06;79.00
3178;BME280;38141;42.666;23.344;2023-02-19T00:40:10;94905.16;;;7.04;78.32
3178;BME280;38141;42.666;23.344;2023-02-19T00:42:37;94894.78;;;7.03;78.99
3178;BME280;38141;42.666;23.344;2023-02-19T00:45:04;94903.13;;;6.98;78.72
3178;BME280;38141;42.666;23.344;2023-02-19T00:47:32;94890.56;;;6.86;78.05
3178;BME280;38141;42.666;23.344;2023-02-19T00:49:59;94863.38;;;6.34;80.41
3178;BME280;38141;42.666;23.344;2023-02-19T00:52:26;94888.94;;;6.82;80.24
3178;BME280;38141;42.666;23.344;2023-02-19T00:54:53;94885.69;;;6.92;80.27
3178;BME280;38141;42.666;23.344;2023-02-19T00:57:20;94874.09;;;6.68;82.39
3178;BME280;38141;42.666;23.344;2023-02-19T00:59:46;94866.88;;;6.53;82.06
3178;BME280;38141;42.666;23.344;2023-02-19T01:02:13;94879.72;;;6.63;81.18
3178;BME280;38141;42.666;23.344;2023-02-19T01:04:41;94889.53;;;6.72;82.11
3178;BME280;38141;42.666;23.344;2023-02-19T01:07:08;94787.59;;;6.09;82.22
3178;BME280;38141;42.666;23.344;2023-02-19T01:09:35;94898.16;;;6.81;81.74
3178;BME280;38141;42.666;23.344;2023-02-19T01:12:03;94855.41;;;6.56;81.51
3178;BME280;38141;42.666;23.344;2023-02-19T01:14:29;94892.31;;;6.59;83.63
3178;BME280;38141;42.666;23.344;2023-02-19T01:16:56;94895.13;;;6.47;86.44
3178;BME280;38141;42.666;23.344;2023-02-19T01:19:24;94881.19;;;6.42;87.57
3178;BME280;38141;42.666;23.344;2023-02-19T01:21:52;94893.00;;;6.37;87.89
3178;BME280;38141;42.666;23.344;2023-02-19T01:24:19;94881.69;;;6.47;88.18
3178;BME280;38141;42.666;23.344;2023-02-19T01:26:46;94759.72;;;5.63;88.17
3178;BME280;38141;42.666;23.344;2023-02-19T01:29:12;94877.03;;;6.44;88.00
3178;BME280;38141;42.666;23.344;2023-02-19T01:31:39;94901.44;;;6.55;88.16
3178;BME280;38141;42.666;23.344;2023-02-19T01:34:09;94906.13;;;6.58;87.61
3178;BME280;38141;42.666;23.344;2023-02-19T01:36:36;94914.53;;;6.56;88.32
3178;BME280;38141;42.666;23.344;2023-02-19T01:39:05;94887.66;;;6.56;87.34
3178;BME280;38141;42.666;23.344;2023-02-19T01:41:35;94905.88;;;6.47;87.66
3178;BME280;38141;42.666;23.344;2023-02-19T01:44:04;94914.22;;;6.42;88.96
3178;BME280;38141;42.666;23.344;2023-02-19T01:46:33;94902.47;;;6.31;88.57
3178;BME280;38141;42.666;23.344;2023-02-19T01:49:04;94935.19;;;6.37;88.31
3178;BME280;38141;42.666;23.344;2023-02-19T01:51:33;94943.84;;;6.46;88.92
3178;BME280;38141;42.666;23.344;2023-02-19T01:54:03;94928.09;;;6.29;88.53
3178;BME280;38141;42.666;23.344;2023-02-19T01:56:33;94945.09;;;6.33;89.24
3178;BME280;38141;42.666;23.344;2023-02-19T01:59:01;94925.22;;;6.37;89.80
3178;BME280;38141;42.666;23.344;2023-02-19T02:01:27;94938.06;;;6.44;88.95
3178;BME280;38141;42.666;23.344;2023-02-19T02:03:54;94934.53;;;6.59;88.03
3178;BME280;38141;42.666;23.344;2023-02-19T02:06:23;94912.25;;;6.39;87.88
3178;BME280;38141;42.666;23.344;2023-02-19T02:08:52;94927.41;;;6.32;89.18
3178;BME280;38141;42.666;23.344;2023-02-19T02:11:42;94931.31;;;6.34;89.62
3178;BME280;38141;42.666;23.344;2023-02-19T02:14:11;94918.91;;;6.30;89.30
3178;BME280;38141;42.666;23.344;2023-02-19T02:16:45;94908.09;;;6.10;89.34
3178;BME280;38141;42.666;23.344;2023-02-19T02:19:37;94857.53;;;5.81;90.71
3178;BME280;38141;42.666;23.344;2023-02-19T02:22:12;94929.63;;;6.45;90.34
3178;BME280;38141;42.666;23.344;2023-02-19T02:27:50;94945.34;;;6.43;87.98
3178;BME280;38141;42.666;23.344;2023-02-19T02:30:30;94926.78;;;6.38;88.66
3178;BME280;38141;42.666;23.344;2023-02-19T02:33:05;94933.22;;;6.34;87.95
3178;BME280;38141;42.666;23.344;2023-02-19T02:35:39;94930.19;;;6.35;88.54
3178;BME280;38141;42.666;23.344;2023-02-19T02:38:10;94924.50;;;6.56;86.34
3178;BME280;38141;42.666;23.344;2023-02-19T02:40:39;94896.44;;;6.53;83.71
3178;BME280;38141;42.666;23.344;2023-02-19T02:43:08;94932.94;;;6.74;82.75
3178;BME280;38141;42.666;23.344;2023-02-19T02:45:36;94930.13;;;6.66;83.20
3178;BME280;38141;42.666;23.344;2023-02-19T02:48:18;94926.97;;;6.80;82.24
3178;BME280;38141;42.666;23.344;2023-02-19T02:50:51;94919.53;;;6.93;80.62
3178;BME280;38141;42.666;23.344;2023-02-19T02:53:22;94925.63;;;6.90;80.92
3178;BME280;38141;42.666;23.344;2023-02-19T02:56:09;94927.47;;;6.86;80.54
3178;BME280;38141;42.666;23.344;2023-02-19T02:58:37;94924.63;;;6.79;80.05
3178;BME280;38141;42.666;23.344;2023-02-19T03:01:07;94860.91;;;6.44;80.82
3178;BME280;38141;42.666;23.344;2023-02-19T03:03:56;94846.31;;;6.26;82.25
3178;BME280;38141;42.666;23.344;2023-02-19T03:06:28;94865.00;;;6.03;82.39
3178;BME280;38141;42.666;23.344;2023-02-19T03:08:58;94926.09;;;6.41;86.04
3178;BME280;38141;42.666;23.344;2023-02-19T03:11:27;94854.59;;;6.02;83.21
3178;BME280;38141;42.666;23.344;2023-02-19T03:14:16;94926.31;;;6.17;86.68
3178;BME280;38141;42.666;23.344;2023-02-19T03:17:08;94941.09;;;5.95;88.92
3178;BME280;38141;42.666;23.344;2023-02-19T03:19:55;94882.19;;;5.55;90.28
3178;BME280;38141;42.666;23.344;2023-02-19T03:22:26;94914.84;;;5.57;90.54
3178;BME280;38141;42.666;23.344;2023-02-19T03:24:57;94887.59;;;5.27;93.98
3178;BME280;38141;42.666;23.344;2023-02-19T03:27:44;94966.22;;;5.87;94.59
3178;BME280;38141;42.666;23.344;2023-02-19T03:30:14;94964.13;;;5.80;93.66
3178;BME280;38141;42.666;23.344;2023-02-19T03:32:47;94956.28;;;5.60;96.22
3178;BME280;38141;42.666;23.344;2023-02-19T03:35:17;94952.34;;;5.85;95.55
3178;BME280;38141;42.666;23.344;2023-02-19T03:37:51;94967.56;;;5.65;95.63
3178;BME280;38141;42.666;23.344;2023-02-19T03:40:20;94979.63;;;5.71;95.62
3178;BME280;38141;42.666;23.344;2023-02-19T03:42:57;94931.84;;;5.33;96.56
3178;BME280;38141;42.666;23.344;2023-02-19T03:45:33;94977.75;;;5.88;96.20
3178;BME280;38141;42.666;23.344;2023-02-19T03:48:21;94900.53;;;5.37;94.26
3178;BME280;38141;42.666;23.344;2023-02-19T03:50:53;94961.06;;;5.82;94.12
3178;BME280;38141;42.666;23.344;2023-02-19T03:53:25;94993.78;;;6.00;94.32
3178;BME280;38141;42.666;23.344;2023-02-19T03:56:03;94990.38;;;5.87;94.95
3178;BME280;38141;42.666;23.344;2023-02-19T03:58:37;94984.63;;;5.73;94.73
3178;BME280;38141;42.666;23.344;2023-02-19T04:01:08;94984.22;;;5.87;95.88
3178;BME280;38141;42.666;23.344;2023-02-19T04:03:40;94968.13;;;5.59;95.79
3178;BME280;38141;42.666;23.344;2023-02-19T04:06:13;94999.09;;;5.84;96.02
3178;BME280;38141;42.666;23.344;2023-02-19T04:08:43;94985.88;;;5.91;93.95
3178;BME280;38141;42.666;23.344;2023-02-19T04:11:13;94992.88;;;5.80;92.05
3178;BME280;38141;42.666;23.344;2023-02-19T04:13:44;94993.44;;;5.58;95.29
3178;BME280;38141;42.666;23.344;2023-02-19T04:16:16;94988.22;;;5.49;98.04
3178;BME280;38141;42.666;23.344;2023-02-19T04:18:47;94973.66;;;5.50;98.59
3178;BME280;38141;42.666;23.344;2023-02-19T04:21:16;94982.78;;;5.61;97.30
3178;BME280;38141;42.666;23.344;2023-02-19T04:23:44;94988.47;;;5.44;95.25
3178;BME280;38141;42.666;23.344;2023-02-19T04:26:12;94921.13;;;5.06;96.59
3178;BME280;38141;42.666;23.344;2023-02-19T04:28:40;94932.94;;;5.17;95.21
3178;BME280;38141;42.666;23.344;2023-02-19T04:31:09;94998.34;;;5.56;96.39
3178;BME280;38141;42.666;23.344;2023-02-19T04:33:36;94986.66;;;5.48;98.52
3178;BME280;38141;42.666;23.344;2023-02-19T04:36:06;94949.88;;;5.49;97.35
3178;BME280;38141;42.666;23.344;2023-02-19T04:38:33;95014.28;;;5.64;96.18
3178;BME280;38141;42.666;23.344;2023-02-19T04:41:00;95001.94;;;5.75;98.21
3178;BME280;38141;42.666;23.344;2023-02-19T04:43:27;95001.00;;;5.83;96.54
3178;BME280;38141;42.666;23.344;2023-02-19T04:45:54;94964.59;;;5.55;95.97
3178;BME280;38141;42.666;23.344;2023-02-19T04:48:24;94989.50;;;5.55;97.61
3178;BME280;38141;42.666;23.344;2023-02-19T04:50:51;95011.03;;;5.71;95.68
3178;BME280;38141;42.666;23.344;2023-02-19T04:53:19;94981.91;;;5.29;94.49
3178;BME280;38141;42.666;23.344;2023-02-19T04:55:46;95013.41;;;5.60;97.80
3178;BME280;38141;42.666;23.344;2023-02-19T04:58:13;94999.47;;;5.55;97.38
3178;BME280;38141;42.666;23.344;2023-02-19T05:00:40;95013.88;;;5.62;96.01
3178;BME280;38141;42.666;23.344;2023-02-19T05:03:06;95016.16;;;5.48;98.26
3178;BME280;38141;42.666;23.344;2023-02-19T05:05:33;95008.81;;;5.05;98.48
3178;BME280;38141;42.666;23.344;2023-02-19T05:08:00;95023.88;;;5.22;100.00
3178;BME280;38141;42.666;23.344;2023-02-19T05:10:28;95030.75;;;5.35;97.89
3178;BME280;38141;42.666;23.344;2023-02-19T05:12:55;95012.50;;;5.13;99.01
3178;BME280;38141;42.666;23.344;2023-02-19T05:15:22;95030.66;;;5.19;100.00
3178;BME280;38141;42.666;23.344;2023-02-19T05:17:49;94994.84;;;5.12;100.00
3178;BME280;38141;42.666;23.344;2023-02-19T05:20:16;95025.09;;;5.52;99.93
3178;BME280;38141;42.666;23.344;2023-02-19T05:22:42;95023.84;;;5.90;96.04
3178;BME280;38141;42.666;23.344;2023-02-19T05:25:09;95034.34;;;6.10;94.03
3178;BME280;38141;42.666;23.344;2023-02-19T05:27:37;95022.91;;;6.29;91.64
3178;BME280;38141;42.666;23.344;2023-02-19T05:30:05;95031.66;;;6.10;91.63
3178;BME280;38141;42.666;23.344;2023-02-19T05:32:33;95011.31;;;6.25;91.10
3178;BME280;38141;42.666;23.344;2023-02-19T05:35:00;94950.69;;;5.80;89.37
3178;BME280;38141;42.666;23.344;2023-02-19T05:37:27;95029.84;;;6.46;88.47
3178;BME280;38141;42.666;23.344;2023-02-19T05:39:54;95010.09;;;6.38;86.55
3178;BME280;38141;42.666;23.344;2023-02-19T05:42:21;94930.13;;;5.41;86.42
3178;BME280;38141;42.666;23.344;2023-02-19T05:44:49;95049.63;;;6.53;86.00
3178;BME280;38141;42.666;23.344;2023-02-19T05:47:15;95030.19;;;6.29;86.99
3178;BME280;38141;42.666;23.344;2023-02-19T05:49:42;95041.72;;;6.60;84.77
3178;BME280;38141;42.666;23.344;2023-02-19T05:52:09;95008.75;;;6.63;84.82
3178;BME280;38141;42.666;23.344;2023-02-19T05:54:36;95038.88;;;7.04;81.51
3178;BME280;38141;42.666;23.344;2023-02-19T05:57:03;95042.59;;;7.34;79.80
3178;BME280;38141;42.666;23.344;2023-02-19T05:59:29;95006.78;;;7.30;76.60
3178;BME280;38141;42.666;23.344;2023-02-19T06:01:59;95059.94;;;8.14;73.50
3178;BME280;38141;42.666;23.344;2023-02-19T06:04:25;95063.56;;;8.21;72.04
3178;BME280;38141;42.666;23.344;2023-02-19T06:06:52;95071.13;;;8.35;70.93
3178;BME280;38141;42.666;23.344;2023-02-19T06:09:19;95064.03;;;8.72;68.75
3178;BME280;38141;42.666;23.344;2023-02-19T06:11:46;95064.59;;;8.81;66.70
3178;BME280;38141;42.666;23.344;2023-02-19T06:14:13;95082.47;;;9.16;66.01
3178;BME280;38141;42.666;23.344;2023-02-19T06:16:41;95090.97;;;9.18;64.66
3178;BME280;38141;42.666;23.344;2023-02-19T06:19:09;95082.22;;;9.80;63.38
3178;BME280;38141;42.666;23.344;2023-02-19T06:21:36;95088.75;;;9.79;61.77
3178;BME280;38141;42.666;23.344;2023-02-19T06:24:04;95022.81;;;9.54;60.88
3178;BME280;38141;42.666;23.344;2023-02-19T06:26:32;94992.91;;;9.70;60.13
3178;BME280;38141;42.666;23.344;2023-02-19T06:28:58;95074.72;;;10.34;59.42
3178;BME280;38141;42.666;23.344;2023-02-19T06:31:25;95007.81;;;9.90;59.38
3178;BME280;38141;42.666;23.344;2023-02-19T06:33:52;95053.22;;;10.48;58.29
3178;BME280;38141;42.666;23.344;2023-02-19T06:36:22;95040.53;;;10.55;57.64
3178;BME280;38141;42.666;23.344;2023-02-19T06:38:49;95071.22;;;10.00;59.90
3178;BME280;38141;42.666;23.344;2023-02-19T06:41:16;95038.69;;;9.89;59.55
3178;BME280;38141;42.666;23.344;2023-02-19T06:43:43;95059.19;;;10.67;59.07
3178;BME280;38141;42.666;23.344;2023-02-19T06:46:11;95057.81;;;10.88;58.89
3178;BME280;38141;42.666;23.344;2023-02-19T06:48:39;95074.66;;;11.18;58.01
3178;BME280;38141;42.666;23.344;2023-02-19T06:51:06;95080.63;;;11.41;56.99
3178;BME280;38141;42.666;23.344;2023-02-19T06:53:34;95062.28;;;11.79;55.73
3178;BME280;38141;42.666;23.344;2023-02-19T06:56:03;95079.56;;;12.46;53.76
3178;BME280;38141;42.666;23.344;2023-02-19T06:58:31;95067.19;;;12.77;52.85
3178;BME280;38141;42.666;23.344;2023-02-19T07:00:58;95088.97;;;13.34;52.52
3178;BME280;38141;42.666;23.344;2023-02-19T07:03:25;95092.03;;;13.50;52.15
3178;BME280;38141;42.666;23.344;2023-02-19T07:05:52;95098.09;;;14.04;50.88
3178;BME280;38141;42.666;23.344;2023-02-19T07:08:19;95058.34;;;14.38;49.52
3178;BME280;38141;42.666;23.344;2023-02-19T07:10:53;95077.31;;;14.52;48.43
3178;BME280;38141;42.666;23.344;2023-02-19T07:13:19;95088.56;;;15.13;48.07
3178;BME280;38141;42.666;23.344;2023-02-19T07:15:46;95080.41;;;15.61;49.31
3178;BME280;38141;42.666;23.344;2023-02-19T07:18:13;95102.50;;;16.41;45.91
3178;BME280;38141;42.666;23.344;2023-02-19T07:20:40;95092.41;;;16.38;45.53
3178;BME280;38141;42.666;23.344;2023-02-19T07:23:07;95063.75;;;16.50;43.70
3178;BME280;38141;42.666;23.344;2023-02-19T07:25:33;95071.53;;;17.32;42.81
3178;BME280;38141;42.666;23.344;2023-02-19T07:28:01;95067.75;;;18.32;40.99
3178;BME280;38141;42.666;23.344;2023-02-19T07:30:28;95065.00;;;18.51;39.52
3178;BME280;38141;42.666;23.344;2023-02-19T07:32:55;95073.50;;;19.09;39.06
3178;BME280;38141;42.666;23.344;2023-02-19T07:35:22;95069.22;;;19.24;37.96
3178;BME280;38141;42.666;23.344;2023-02-19T07:37:49;95073.81;;;20.21;36.67
3178;BME280;38141;42.666;23.344;2023-02-19T07:40:15;95069.91;;;21.39;34.96
3178;BME280;38141;42.666;23.344;2023-02-19T07:42:42;95040.13;;;22.90;32.42
3178;BME280;38141;42.666;23.344;2023-02-19T07:45:11;95052.59;;;27.78;27.32
3178;BME280;38141;42.666;23.344;2023-02-19T07:47:37;95076.63;;;30.36;24.63
3178;BME280;38141;42.666;23.344;2023-02-19T07:50:05;95089.97;;;28.33;25.26
3178;BME280;38141;42.666;23.344;2023-02-19T07:52:32;95080.66;;;29.13;25.82
3178;BME280;38141;42.666;23.344;2023-02-19T07:54:59;95071.81;;;26.83;27.18
3178;BME280;38141;42.666;23.344;2023-02-19T07:57:26;95056.97;;;25.14;28.52
3178;BME280;38141;42.666;23.344;2023-02-19T07:59:53;95061.13;;;24.04;30.17
3178;BME280;38141;42.666;23.344;2023-02-19T08:02:21;95065.09;;;23.26;30.80
3178;BME280;38141;42.666;23.344;2023-02-19T08:05:20;95068.97;;;25.53;28.53
3178;BME280;38141;42.666;23.344;2023-02-19T08:07:47;95073.53;;;25.32;28.66
3178;BME280;38141;42.666;23.344;2023-02-19T08:10:14;95074.41;;;25.95;27.93
3178;BME280;38141;42.666;23.344;2023-02-19T08:12:59;95071.72;;;25.20;28.76
3178;BME280;38141;42.666;23.344;2023-02-19T08:15:44;95050.94;;;25.81;28.06
3178;BME280;38141;42.666;23.344;2023-02-19T08:18:13;95057.78;;;25.05;29.06
3178;BME280;38141;42.666;23.344;2023-02-19T08:20:41;95044.69;;;26.48;28.28
3178;BME280;38141;42.666;23.344;2023-02-19T08:23:17;95067.97;;;27.39;26.66
3178;BME280;38141;42.666;23.344;2023-02-19T08:25:46;95058.81;;;27.88;26.07
3178;BME280;38141;42.666;23.344;2023-02-19T08:28:14;95061.72;;;28.65;25.36
3178;BME280;38141;42.666;23.344;2023-02-19T08:30:42;95068.50;;;29.42;24.71
3178;BME280;38141;42.666;23.344;2023-02-19T08:33:25;95066.53;;;36.93;18.73
3178;BME280;38141;42.666;23.344;2023-02-19T08:35:52;95060.19;;;37.76;17.56
3178;BME280;38141;42.666;23.344;2023-02-19T08:38:19;95069.25;;;35.54;19.32
3178;BME280;38141;42.666;23.344;2023-02-19T08:40:46;95071.59;;;35.82;18.37
3178;BME280;38141;42.666;23.344;2023-02-19T08:43:14;95077.09;;;38.46;17.27
3178;BME280;38141;42.666;23.344;2023-02-19T08:46:01;95077.59;;;38.08;17.18
3178;BME280;38141;42.666;23.344;2023-02-19T08:48:30;95087.72;;;39.93;16.46
3178;BME280;38141;42.666;23.344;2023-02-19T08:50:58;95059.28;;;38.02;17.31
3178;BME280;38141;42.666;23.344;2023-02-19T08:53:28;95043.47;;;37.16;18.23
3178;BME280;38141;42.666;23.344;2023-02-19T08:55:55;95050.31;;;37.20;17.98
3178;BME280;38141;42.666;23.344;2023-02-19T08:58:23;95047.81;;;37.37;17.74
3178;BME280;38141;42.666;23.344;2023-02-19T09:00:50;95045.91;;;37.53;17.94
3178;BME280;38141;42.666;23.344;2023-02-19T09:03:17;95042.06;;;36.28;18.65
3178;BME280;38141;42.666;23.344;2023-02-19T09:05:46;95035.91;;;34.95;19.31
3178;BME280;38141;42.666;23.344;2023-02-19T09:08:12;95030.09;;;34.55;19.75
3178;BME280;38141;42.666;23.344;2023-02-19T09:10:40;95018.09;;;35.69;18.36
3178;BME280;38141;42.666;23.344;2023-02-19T09:13:07;95008.97;;;33.87;19.81
3178;BME280;38141;42.666;23.344;2023-02-19T09:15:33;95031.06;;;36.64;18.86
3178;BME280;38141;42.666;23.344;2023-02-19T09:18:00;95035.66;;;40.28;16.28
3178;BME280;38141;42.666;23.344;2023-02-19T09:20:27;95037.66;;;41.88;14.60
3178;BME280;38141;42.666;23.344;2023-02-19T09:22:58;95002.00;;;43.17;14.23
3178;BME280;38141;42.666;23.344;2023-02-19T09:25:25;94990.38;;;43.78;13.76
3178;BME280;38141;42.666;23.344;2023-02-19T09:27:55;95014.09;;;41.20;14.99
3178;BME280;38141;42.666;23.344;2023-02-19T09:30:22;94993.00;;;38.10;16.90
3178;BME280;38141;42.666;23.344;2023-02-19T09:32:49;94998.00;;;40.35;16.17
3178;BME280;38141;42.666;23.344;2023-02-19T09:35:16;95013.47;;;40.50;15.94
3178;BME280;38141;42.666;23.344;2023-02-19T09:37:43;94998.31;;;39.31;16.41
3178;BME280;38141;42.666;23.344;2023-02-19T09:40:11;95015.50;;;39.33;16.64
3178;BME280;38141;42.666;23.344;2023-02-19T09:42:40;95010.53;;;37.39;17.56
3178;BME280;38141;42.666;23.344;2023-02-19T09:45:15;95002.34;;;38.77;16.67
3178;BME280;38141;42.666;23.344;2023-02-19T09:47:45;94992.22;;;32.04;21.69
3178;BME280;38141;42.666;23.344;2023-02-19T09:50:16;94983.34;;;29.09;23.77
3178;BME280;38141;42.666;23.344;2023-02-19T09:52:49;94986.09;;;31.15;22.55
3178;BME280;38141;42.666;23.344;2023-02-19T09:55:24;94973.72;;;27.21;25.57
3178;BME280;38141;42.666;23.344;2023-02-19T09:57:55;94968.97;;;28.28;25.27
3178;BME280;38141;42.666;23.344;2023-02-19T10:00:24;94957.63;;;27.85;25.27
3178;BME280;38141;42.666;23.344;2023-02-19T10:02:53;94940.44;;;28.64;24.30
3178;BME280;38141;42.666;23.344;2023-02-19T10:05:22;94923.25;;;28.66;24.27
3178;BME280;38141;42.666;23.344;2023-02-19T10:07:51;94936.81;;;28.27;24.67
3178;BME280;38141;42.666;23.344;2023-02-19T10:10:26;94931.69;;;28.46;24.75
3178;BME280;38141;42.666;23.344;2023-02-19T10:12:55;94931.31;;;28.33;25.20
3178;BME280;38141;42.666;23.344;2023-02-19T10:15:28;94928.41;;;27.35;25.70
3178;BME280;38141;42.666;23.344;2023-02-19T10:17:57;94920.06;;;27.15;25.76
3178;BME280;38141;42.666;23.344;2023-02-19T10:20:24;94918.16;;;27.21;25.57
3178;BME280;38141;42.666;23.344;2023-02-19T10:22:57;94910.88;;;27.09;25.91
3178;BME280;38141;42.666;23.344;2023-02-19T10:25:27;94905.78;;;27.62;25.67
3178;BME280;38141;42.666;23.344;2023-02-19T10:27:56;94896.81;;;26.63;26.26
3178;BME280;38141;42.666;23.344;2023-02-19T10:30:24;94902.44;;;26.83;26.21
3178;BME280;38141;42.666;23.344;2023-02-19T10:32:59;94894.66;;;26.08;26.97
3178;BME280;38141;42.666;23.344;2023-02-19T10:35:27;94873.03;;;25.83;26.89
3178;BME280;38141;42.666;23.344;2023-02-19T10:37:54;94851.06;;;26.23;26.50
3178;BME280;38141;42.666;23.344;2023-02-19T10:40:24;94882.63;;;26.11;26.40
3178;BME280;38141;42.666;23.344;2023-02-19T10:42:55;94854.41;;;26.27;26.50
3178;BME280;38141;42.666;23.344;2023-02-19T10:45:24;94875.66;;;25.48;27.35
3178;BME280;38141;42.666;23.344;2023-02-19T10:47:53;94857.25;;;25.36;27.86
3178;BME280;38141;42.666;23.344;2023-02-19T10:50:25;94852.63;;;25.18;27.51
3178;BME280;38141;42.666;23.344;2023-02-19T10:52:54;94833.25;;;25.18;28.03
3178;BME280;38141;42.666;23.344;2023-02-19T10:55:27;94833.47;;;24.58;28.17
3178;BME280;38141;42.666;23.344;2023-02-19T10:57:56;94838.81;;;25.56;27.95
3178;BME280;38141;42.666;23.344;2023-02-19T11:00:25;94840.97;;;26.40;27.72
3178;BME280;38141;42.666;23.344;2023-02-19T11:03:17;94826.31;;;25.76;27.16
3178;BME280;38141;42.666;23.344;2023-02-19T11:05:56;94805.09;;;25.19;27.91
3178;BME280;38141;42.666;23.344;2023-02-19T11:08:25;94826.66;;;26.27;26.61
3178;BME280;38141;42.666;23.344;2023-02-19T11:10:51;94812.16;;;25.74;27.16
3178;BME280;38141;42.666;23.344;2023-02-19T11:13:25;94817.28;;;26.10;27.30
3178;BME280;38141;42.666;23.344;2023-02-19T11:15:55;94796.31;;;25.21;27.92
3178;BME280;38141;42.666;23.344;2023-02-19T11:18:24;94802.97;;;25.14;28.27
3178;BME280;38141;42.666;23.344;2023-02-19T11:20:53;94800.19;;;25.53;27.56
3178;BME280;38141;42.666;23.344;2023-02-19T11:23:24;94777.19;;;26.61;26.68
3178;BME280;38141;42.666;23.344;2023-02-19T11:25:53;94786.56;;;26.83;26.08
3178;BME280;38141;42.666;23.344;2023-02-19T11:28:30;94779.47;;;26.62;26.40
3178;BME280;38141;42.666;23.344;2023-02-19T11:31:13;94770.41;;;26.62;26.63
3178;BME280;38141;42.666;23.344;2023-02-19T11:33:44;94759.16;;;27.11;25.78
3178;BME280;38141;42.666;23.344;2023-02-19T11:36:24;94759.94;;;26.91;26.05
3178;BME280;38141;42.666;23.344;2023-02-19T11:38:52;94761.56;;;26.63;26.32
3178;BME280;38141;42.666;23.344;2023-02-19T11:41:29;94732.56;;;26.09;26.50
3178;BME280;38141;42.666;23.344;2023-02-19T11:44:11;94733.31;;;26.44;26.18
3178;BME280;38141;42.666;23.344;2023-02-19T11:46:48;94741.63;;;26.09;25.92
3178;BME280;38141;42.666;23.344;2023-02-19T11:49:27;94741.47;;;25.98;26.83
3178;BME280;38141;42.666;23.344;2023-02-19T11:52:09;94728.53;;;26.25;26.40
3178;BME280;38141;42.666;23.344;2023-02-19T11:54:45;94736.72;;;25.84;26.57
3178;BME280;38141;42.666;23.344;2023-02-19T12:00:18;94721.88;;;24.99;27.36
3178;BME280;38141;42.666;23.344;2023-02-19T12:03:17;94716.31;;;24.85;27.00
3178;BME280;38141;42.666;23.344;2023-02-19T12:05:52;94721.91;;;25.14;26.59
3178;BME280;38141;42.666;23.344;2023-02-19T12:08:40;94712.56;;;25.11;27.01
3178;BME280;38141;42.666;23.344;2023-02-19T12:11:24;94699.78;;;24.75;27.08
3178;BME280;38141;42.666;23.344;2023-02-19T12:14:05;94702.81;;;24.39;26.89
3178;BME280;38141;42.666;23.344;2023-02-19T12:16:41;94697.91;;;24.58;27.16
3178;BME280;38141;42.666;23.344;2023-02-19T12:19:30;94684.84;;;24.11;27.42
3178;BME280;38141;42.666;23.344;2023-02-19T12:22:19;94678.53;;;24.58;27.19
3178;BME280;38141;42.666;23.344;2023-02-19T12:25:30;94680.34;;;25.58;26.39
3178;BME280;38141;42.666;23.344;2023-02-19T12:31:23;94670.00;;;24.85;27.27
3178;BME280;38141;42.666;23.344;2023-02-19T12:34:20;94674.06;;;25.28;27.05
3178;BME280;38141;42.666;23.344;2023-02-19T12:37:00;94673.53;;;24.71;27.49
3178;BME280;38141;42.666;23.344;2023-02-19T12:39:38;94659.28;;;24.25;28.02
3178;BME280;38141;42.666;23.344;2023-02-19T12:42:27;94599.47;;;23.23;28.72
3178;BME280;38141;42.666;23.344;2023-02-19T12:45:01;94645.72;;;23.79;28.91
3178;BME280;38141;42.666;23.344;2023-02-19T12:47:32;94614.34;;;23.59;28.44
3178;BME280;38141;42.666;23.344;2023-02-19T12:50:08;94651.53;;;22.97;29.21
3178;BME280;38141;42.666;23.344;2023-02-19T12:52:42;94628.06;;;23.02;29.92
3178;BME280;38141;42.666;23.344;2023-02-19T12:55:20;94621.41;;;23.18;29.38
3178;BME280;38141;42.666;23.344;2023-02-19T12:57:49;94627.66;;;23.69;29.47
3178;BME280;38141;42.666;23.344;2023-02-19T13:00:27;94617.38;;;23.70;28.96
3178;BME280;38141;42.666;23.344;2023-02-19T13:02:59;94612.34;;;23.59;29.32
3178;BME280;38141;42.666;23.344;2023-02-19T13:05:39;94584.97;;;23.37;29.03
3178;BME280;38141;42.666;23.344;2023-02-19T13:08:14;94595.84;;;23.41;29.18
3178;BME280;38141;42.666;23.344;2023-02-19T13:10:45;94615.31;;;23.79;29.04
3178;BME280;38141;42.666;23.344;2023-02-19T13:13:18;94598.69;;;23.65;29.04
3178;BME280;38141;42.666;23.344;2023-02-19T13:15:49;94599.56;;;23.38;29.03
3178;BME280;38141;42.666;23.344;2023-02-19T13:18:18;94602.56;;;23.16;29.48
3178;BME280;38141;42.666;23.344;2023-02-19T13:20:47;94589.94;;;22.82;29.70
3178;BME280;38141;42.666;23.344;2023-02-19T13:23:19;94587.81;;;22.59;30.57
3178;BME280;38141;42.666;23.344;2023-02-19T13:26:19;94585.53;;;22.76;30.05
3178;BME280;38141;42.666;23.344;2023-02-19T13:29:02;94579.00;;;22.97;29.70
3178;BME280;38141;42.666;23.344;2023-02-19T13:31:50;94570.75;;;23.30;29.55
3178;BME280;38141;42.666;23.344;2023-02-19T13:34:35;94567.34;;;23.35;29.20